Data for 08/09/2009

Time Sea-Level Adjusted Pressure Absolute Pressure Temperature Relative Humidity Dew Point   
(mb) (inHg) (mb) (inHg) (C) (F) (%) (C) (F)
00:05 1021 30.15 850 25.1 10.4 50.8 74 6.1 43
00:10 1021 30.15 850 25.1 10.3 50.6 75 6.1 43
00:15 1021 30.15 850 25.1 10.3 50.6 74 6 42.8
00:20 1021 30.15 850 25.1 10.4 50.7 76 6.3 43.4
00:25 1021 30.15 850 25.1 10.3 50.5 76 6.2 43.1
00:30 1021 30.15 850 25.1 10.3 50.5 75 6.1 43
00:35 1021 30.15 850 25.1 10.4 50.8 73 5.9 42.6
00:40 1021 30.15 850 25.1 10.4 50.8 74 6 42.7
00:45 1021 30.15 850 25.1 10.5 50.8 71 5.4 41.7
00:50 1021 30.15 850 25.1 10.8 51.4 69 5.4 41.6
00:55 1021 30.15 850 25.1 11 51.8 68 5.3 41.6
01:00 1021 30.15 850 25.1 11.3 52.3 67 5.4 41.8
01:05 1021 30.15 850 25.1 11.3 52.3 68 5.7 42.2
01:10 1021 30.15 850 25.1 11 51.7 70 5.8 42.4
01:15 1021 30.15 850 25.1 10.6 51.1 72 5.9 42.5
01:20 1021 30.15 850 25.1 10.2 50.3 75 6 42.7
01:25 1021 30.15 850 25.1 9.8 49.6 77 6 42.7
01:30 1021 30.15 850 25.1 9.6 49.3 78 5.9 42.6
01:35 1021 30.15 850 25.1 9.6 49.3 77 5.9 42.6
01:40 1021 30.15 850 25.1 9.7 49.5 77 6 42.7
01:45 1021 30.15 850 25.1 9.8 49.6 77 5.9 42.6
01:50 1021 30.15 850 25.1 9.8 49.7 76 5.8 42.5
01:55 1021 30.15 850 25.1 9.9 49.8 74 5.5 41.9
02:00 1021 30.15 850 25.1 10.2 50.4 73 5.6 42.1
02:05 1021 30.15 850 25.1 10.3 50.5 74 5.8 42.5
02:10 1021 30.15 850 25.1 10.2 50.4 74 5.7 42.3
02:15 1021 30.15 850 25.1 10.2 50.4 72 5.5 41.8
02:20 1021 30.15 850 25.1 10.2 50.4 74 5.8 42.4
02:25 1021 30.15 850 25.1 10.1 50.1 76 6 42.9
02:30 1021 30.15 850 25.1 9.9 49.8 78 6.3 43.4
02:35 1021 30.15 850 25.1 9.8 49.6 79 6.3 43.3
02:40 1021 30.15 850 25.1 9.7 49.5 78 6.2 43.1
02:45 1021 30.15 850 25.1 9.9 49.9 77 6.1 43
02:50 1021 30.15 850 25.1 10.1 50.2 78 6.4 43.5
02:55 1021 30.15 850 25.1 10.1 50.1 79 6.6 43.9
03:00 1021 30.15 850 25.1 10.1 50.2 80 6.8 44.2
03:05 1021 30.15 850 25.1 10.1 50.2 80 6.8 44.2
03:10 1021 30.15 850 25.1 10.2 50.3 79 6.7 44
03:15 1021 30.15 850 25.1 10.2 50.3 79 6.7 44
03:20 1021 30.15 850 25.1 10.4 50.6 77 6.6 43.8
03:25 1021 30.15 850 25.1 10.5 50.9 77 6.6 43.8
03:30 1021 30.15 850 25.1 10.4 50.6 77 6.5 43.6
03:35 1021 30.15 850 25.1 10.1 50.3 80 6.9 44.5
03:40 1021 30.15 850 25.1 9.8 49.7 81 6.7 44.1
03:45 1021 30.15 850 25.1 9.9 49.8 81 6.7 44.1
03:50 1021 30.15 850 25.1 10.2 50.3 77 6.4 43.6
03:55 1021 30.15 850 25.1 10.3 50.6 77 6.5 43.7
04:00 1021 30.15 850 25.1 10.4 50.8 77 6.6 43.9
04:05 1021 30.15 850 25.1 10.5 51 78 7 44.5
04:10 1021 30.15 850 25.1 10.6 51.1 78 7 44.6
04:15 1021 30.15 850 25.1 10.6 51.1 79 7.1 44.8
04:20 1021 30.15 850 25.1 10.5 50.9 79 7 44.7
04:25 1021 30.15 850 25.1 10.4 50.8 79 7 44.6
04:30 1021 30.15 850 25.1 10.4 50.7 80 7.2 45
04:35 1021 30.15 850 25.1 10.2 50.4 81 7.2 44.9
04:40 1021 30.15 850 25.1 10.2 50.3 81 7 44.7
04:45 1021 30.15 850 25.1 10.3 50.5 81 7.1 44.8
04:50 1021 30.15 850 25.1 10.3 50.5 79 6.9 44.5
04:55 1021 30.15 850 25.1 10.4 50.8 78 6.8 44.2
05:00 1021 30.15 850 25.1 10.5 50.9 78 6.8 44.3
05:05 1021 30.15 850 25.1 10.5 50.8 79 6.9 44.5
05:10 1021 30.15 850 25.1 10.3 50.6 79 6.8 44.3
05:15 1021 30.15 850 25.1 10.2 50.4 80 7 44.6
05:20 1021 30.15 850 25.1 10 50 81 6.9 44.5
05:25 1021 30.15 850 25.1 9.9 49.7 81 6.8 44.2
05:30 1021 30.15 850 25.1 9.9 49.8 81 6.9 44.4
05:35 1021 30.15 851 25.13 9.8 49.7 83 7 44.6
05:40 1021 30.15 851 25.13 9.8 49.6 82 6.8 44.3
05:45 1021 30.15 851 25.13 9.9 49.8 80 6.6 43.9
05:50 1021 30.15 851 25.13 10 50 79 6.5 43.7
05:55 1021 30.15 851 25.13 10.1 50.1 79 6.7 44
06:00 1021 30.15 851 25.13 10 50 80 6.6 43.9
06:05 1022 30.18 851 25.13 9.9 49.9 80 6.6 43.8
06:10 1022 30.18 851 25.13 9.9 49.9 79 6.6 43.8
06:15 1022 30.18 851 25.13 10 49.9 79 6.5 43.8
06:20 1022 30.18 851 25.13 10.1 50.1 79 6.6 43.9
06:25 1022 30.18 851 25.13 10 50 80 6.7 44.1
06:30 1022 30.18 851 25.13 9.9 49.8 80 6.7 44
06:35 1022 30.18 851 25.13 9.8 49.6 81 6.7 44.1
06:40 1022 30.18 851 25.13 9.8 49.7 82 6.8 44.3
06:45 1022 30.18 851 25.13 9.8 49.6 84 7.1 44.9
06:50 1022 30.18 851 25.13 9.7 49.4 80 6.4 43.6
06:55 1022 30.18 851 25.13 9.8 49.6 78 6.2 43.1
07:00 1022 30.18 851 25.13 10.2 50.3 78 6.5 43.7
07:05 1022 30.18 851 25.13 10.2 50.3 79 6.7 44
07:10 1022 30.18 851 25.13 10.1 50.1 80 6.8 44.3
07:15 1022 30.18 851 25.13 10.1 50.2 80 6.8 44.2
07:20 1022 30.18 851 25.13 10.3 50.6 77 6.5 43.6
07:25 1022 30.18 851 25.13 10.6 51 75 6.3 43.4
07:30 1022 30.18 851 25.13 10.8 51.4 73 6.1 42.9
07:35 1022 30.18 851 25.13 11.1 51.9 72 6.2 43.2
07:40 1022 30.18 851 25.13 11.4 52.4 70 6.2 43.1
07:45 1022 30.18 851 25.13 11.8 53.2 71 6.7 44.1
07:50 1022 30.18 851 25.13 11.7 53 67 5.8 42.5
07:55 1022 30.18 851 25.13 12 53.5 67 6.1 43.1
08:00 1022 30.18 851 25.13 12.4 54.4 68 6.7 44.1
08:05 1022 30.18 851 25.13 12 53.6 69 6.6 43.9
08:10 1022 30.18 851 25.13 11.9 53.3 69 6.4 43.5
08:15 1022 30.18 851 25.13 11.8 53.2 69 6.3 43.4
08:20 1022 30.18 851 25.13 11.7 53.1 69 6.3 43.4
08:25 1022 30.18 851 25.13 11.8 53.3 68 6.3 43.3
08:30 1022 30.18 851 25.13 11.9 53.5 69 6.4 43.6
08:35 1022 30.18 851 25.13 12 53.6 69 6.5 43.7
08:40 1022 30.18 851 25.13 12.3 54.1 68 6.6 43.9
08:45 1022 30.18 851 25.13 12.6 54.6 67 6.6 43.9
08:50 1022 30.18 851 25.13 12.8 55 65 6.5 43.6
08:55 1022 30.18 851 25.13 13.1 55.5 64 6.5 43.6
09:00 1022 30.18 851 25.13 13.8 56.9 62 6.7 44
09:05 1022 30.18 851 25.13 13.6 56.5 63 6.7 44.1
09:10 1022 30.18 851 25.13 14.2 57.5 59 6.5 43.6
09:15 1022 30.18 851 25.13 14.9 58.7 59 7 44.6
09:20 1022 30.18 852 25.16 14.4 58 59 6.6 43.9
09:25 1022 30.18 852 25.16 14.6 58.3 60 6.9 44.4
09:30 1022 30.18 852 25.16 14.8 58.6 58 6.7 44.1
09:35 1022 30.18 852 25.16 15.1 59.2 57 6.7 44.1
09:40 1022 30.18 852 25.16 15.7 60.3 55 6.9 44.4
09:45 1022 30.18 852 25.16 16.2 61.2 53 6.6 44
09:50 1022 30.18 852 25.16 16.5 61.6 53 6.9 44.5
09:55 1022 30.18 852 25.16 16.7 62.1 50 6.3 43.4
10:00 1022 30.18 852 25.16 17 62.5 48 6 42.8
10:05 1022 30.18 852 25.16 16.4 61.4 50 6.1 43
10:10 1022 30.18 852 25.16 16.5 61.6 50 6.1 42.9
10:15 1022 30.18 852 25.16 17 62.7 49 6.3 43.4
10:20 1022 30.18 852 25.16 17.3 63.1 49 6.5 43.8
10:25 1022 30.18 852 25.16 17.1 62.7 47 5.8 42.4
10:30 1022 30.18 852 25.16 16.9 62.4 51 6.8 44.3
10:35 1022 30.18 852 25.16 16.4 61.6 47 5.2 41.4
10:40 1022 30.18 852 25.16 17.6 63.7 46 5.8 42.5
10:45 1022 30.18 852 25.16 18.2 64.8 44 6 42.8
10:50 1022 30.18 852 25.16 18.1 64.6 45 6.1 43
10:55 1022 30.18 852 25.16 17.9 64.2 47 6.6 43.9
11:00 1022 30.18 852 25.16 17.9 64.3 46 6.2 43.2
11:05 1022 30.18 852 25.16 18.3 64.9 42 5.3 41.5
11:10 1022 30.18 852 25.16 18.7 65.6 41 5.2 41.4
11:15 1022 30.18 851 25.13 18.1 64.5 46 6.3 43.3
11:20 1022 30.18 851 25.13 17.4 63.3 44 5.2 41.3
11:25 1022 30.18 851 25.13 17.4 63.2 46 5.6 42.1
11:30 1022 30.18 851 25.13 18.4 65.1 43 5.7 42.2
11:35 1022 30.18 851 25.13 18.3 64.9 43 5.5 41.9
11:40 1022 30.18 851 25.13 18.2 64.7 42 5.2 41.4
11:45 1022 30.18 851 25.13 18.5 65.4 42 5.5 41.9
11:50 1022 30.18 851 25.13 17.9 64.2 42 4.8 40.7
11:55 1022 30.18 851 25.13 18.5 65.3 42 5.4 41.7
12:00 1022 30.18 851 25.13 18.8 65.8 40 4.9 40.9
12:05 1022 30.18 851 25.13 19.6 67.3 39 5.5 41.9
12:10 1022 30.18 851 25.13 19.6 67.3 39 5.4 41.7
12:15 1022 30.18 851 25.13 20.3 68.5 37 5.2 41.4
12:20 1022 30.18 851 25.13 20.3 68.5 39 5.9 42.6
12:25 1022 30.18 851 25.13 19.7 67.5 42 6.6 43.9
12:30 1022 30.18 851 25.13 20.3 68.5 39 5.9 42.6
12:35 1022 30.18 851 25.13 20 68.1 40 6.3 43.4
12:40 1022 30.18 851 25.13 20.2 68.3 38 5.5 41.9
12:45 1022 30.18 851 25.13 20.6 69.1 39 6.5 43.7
12:50 1022 30.18 851 25.13 20 67.9 39 5.8 42.4
12:55 1022 30.18 851 25.13 20.3 68.6 40 6.4 43.5
13:00 1022 30.18 851 25.13 20.4 68.8 40 6.4 43.5
13:05 1022 30.18 851 25.13 20.1 68.2 40 6.1 42.9
13:10 1022 30.18 851 25.13 20.4 68.8 40 6.6 44
13:15 1022 30.18 851 25.13 20.4 68.6 37 5.4 41.7
13:20 1022 30.18 851 25.13 20 68 40 6.3 43.3
13:25 1022 30.18 851 25.13 20.2 68.4 39 6 42.8
13:30 1022 30.18 851 25.13 20.7 69.3 37 5.7 42.3
13:35 1022 30.18 851 25.13 21.3 70.4 36 6 42.8
13:40 1022 30.18 851 25.13 21.9 71.4 35 6.1 42.9
13:45 1022 30.18 851 25.13 21.3 70.3 37 6.3 43.3
13:50 1022 30.18 851 25.13 20.7 69.3 39 6.3 43.3
13:55 1022 30.18 851 25.13 20.7 69.2 39 6.3 43.3
14:00 1022 30.18 851 25.13 21.4 70.5 37 6.3 43.4
14:05 1022 30.18 851 25.13 21 69.9 38 6.4 43.5
14:10 1022 30.18 851 25.13 21 69.9 37 6 42.8
14:15 1022 30.18 851 25.13 21.3 70.4 38 6.5 43.6
14:20 1022 30.18 851 25.13 21.9 71.5 35 5.9 42.7
14:25 1022 30.18 851 25.13 21.7 71 35 5.6 42.1
14:30 1022 30.18 851 25.13 22 71.6 35 6.2 43.1
14:35 1022 30.18 851 25.13 21.7 71.1 35 5.7 42.2
14:40 1022 30.18 851 25.13 21.9 71.4 35 6 42.8
14:45 1022 30.18 851 25.13 21.9 71.3 33 5.1 41.1
14:50 1022 30.18 851 25.13 22 71.7 34 5.5 41.9
14:55 1022 30.18 851 25.13 22.2 72 35 6.2 43.2
15:00 1022 30.18 851 25.13 22.3 72.2 33 5.5 41.9
15:05 1022 30.18 851 25.13 22.3 72.2 33 5.4 41.7
15:10 1022 30.18 851 25.13 22.8 73 32 5.6 42.1
15:15 1021 30.15 851 25.13 22.9 73.2 33 6 42.8
15:20 1021 30.15 851 25.13 22.9 73.2 32 5.5 42
15:25 1021 30.15 851 25.13 22.9 73.3 31 5 40.9
15:30 1021 30.15 851 25.13 23.4 74.2 30 5.1 41.1
15:35 1021 30.15 851 25.13 24 75.2 31 5.9 42.7
15:40 1021 30.15 851 25.13 23.3 73.9 32 5.7 42.3
15:45 1021 30.15 851 25.13 23.4 74 30 5 41.1
15:50 1021 30.15 850 25.1 23.3 73.9 30 4.9 40.9
15:55 1021 30.15 850 25.1 23.4 74.2 30 5.2 41.4
16:00 1021 30.15 850 25.1 23.7 74.6 30 5.2 41.3
16:05 1021 30.15 850 25.1 23.5 74.2 31 5.4 41.8
16:10 1021 30.15 850 25.1 23.3 74 30 4.8 40.6
16:15 1021 30.15 850 25.1 23.2 73.7 28 3.7 38.7
16:20 1021 30.15 850 25.1 23.4 74 29 4.3 39.7
16:25 1021 30.15 850 25.1 23.4 74 29 4.7 40.5
16:30 1021 30.15 850 25.1 23.6 74.5 27 3.6 38.5
16:35 1021 30.15 850 25.1 23.8 74.8 27 3.9 39.1
16:40 1021 30.15 850 25.1 23.7 74.6 27 4 39.2
16:45 1021 30.15 850 25.1 23.5 74.3 28 4 39.1
16:50 1021 30.15 850 25.1 23.7 74.7 28 4.6 40.3
16:55 1021 30.15 850 25.1 23.9 75 27 3.9 39.1
17:00 1021 30.15 850 25.1 24.4 75.8 26 3.7 38.6
17:05 1021 30.15 850 25.1 24.4 75.8 26 3.9 39
17:10 1021 30.15 850 25.1 23.8 74.8 26 3.4 38.1
17:15 1021 30.15 850 25.1 23.9 75 26 3.5 38.4
17:20 1021 30.15 850 25.1 24.4 75.9 24 2.9 37.2
17:25 1021 30.15 850 25.1 24 75.1 26 3.4 38.1
17:30 1021 30.15 850 25.1 23.7 74.7 25 2.8 37.1
17:35 1021 30.15 850 25.1 24.2 75.6 26 3.7 38.6
17:40 1021 30.15 850 25.1 24.4 75.9 25 3.6 38.5
17:45 1021 30.15 850 25.1 24.1 75.3 26 3.8 38.9
17:50 1021 30.15 850 25.1 24 75.2 25 3.1 37.6
17:55 1021 30.15 850 25.1 23.8 74.8 26 3.2 37.7
18:00 1021 30.15 850 25.1 23 73.4 27 3.3 38
18:05 1021 30.15 850 25.1 23 73.4 27 3 37.5
18:10 1021 30.15 850 25.1 23.2 73.8 27 3.6 38.5
18:15 1021 30.15 850 25.1 22.8 73 29 4.1 39.3
18:20 1021 30.15 850 25.1 22.3 72.1 29 3.6 38.5
18:25 1021 30.15 850 25.1 22.1 71.8 29 3.7 38.6
18:30 1021 30.15 850 25.1 22.2 71.9 29 3.5 38.3
18:35 1021 30.15 850 25.1 22.6 72.7 30 4.2 39.5
18:40 1021 30.15 850 25.1 22.6 72.7 30 4.2 39.6
18:45 1021 30.15 850 25.1 22.4 72.4 30 4 39.1
18:50 1021 30.15 850 25.1 21.6 70.8 32 4.3 39.8
18:55 1021 30.15 850 25.1 20.5 68.8 33 4 39.2
19:00 1021 30.15 850 25.1 20.4 68.6 34 4 39.1
19:05 1021 30.15 850 25.1 20.1 68.1 34 4.1 39.3
19:10 1021 30.15 850 25.1 19.9 67.9 35 4 39.3
19:15 1021 30.15 850 25.1 19.9 67.8 35 4.3 39.7
19:20 1021 30.15 850 25.1 19.9 67.8 36 4.7 40.5
19:25 1021 30.15 850 25.1 19.9 67.7 37 5 41.1
19:30 1021 30.15 850 25.1 19.8 67.6 40 5.8 42.4
19:35 1021 30.15 850 25.1 19.7 67.4 41 6.2 43.2
19:40 1021 30.15 850 25.1 19.7 67.5 41 6.3 43.4
19:45 1021 30.15 850 25.1 19.8 67.6 42 6.5 43.7
19:50 1021 30.15 850 25.1 19.7 67.5 40 5.9 42.6
19:55 1021 30.15 850 25.1 19.8 67.6 39 5.5 41.8
20:00 1021 30.15 850 25.1 19.6 67.2 39 5.4 41.8
20:05 1021 30.15 850 25.1 19.5 67.1 40 5.7 42.3
20:10 1021 30.15 851 25.13 18.9 66.1 51 8.6 47.5
20:15 1021 30.15 851 25.13 18 64.4 56 9.3 48.7
20:20 1021 30.15 851 25.13 17.8 64 54 8.6 47.5
20:25 1021 30.15 851 25.13 17.7 63.8 49 6.8 44.3
20:30 1021 30.15 851 25.13 17.5 63.6 51 7.4 45.4
20:35 1021 30.15 851 25.13 17.3 63.1 51 7.1 44.8
20:40 1021 30.15 851 25.13 17.2 63 51 7.2 44.9
20:45 1021 30.15 851 25.13 17.2 62.9 53 7.6 45.7
20:50 1022 30.18 851 25.13 17.1 62.7 52 7.3 45.1
20:55 1022 30.18 851 25.13 16.7 62 54 7.3 45.2
21:00 1022 30.18 851 25.13 16.2 61.2 54 7.1 44.8
21:05 1022 30.18 851 25.13 15.9 60.7 55 6.9 44.5
21:10 1022 30.18 851 25.13 15.8 60.5 54 6.7 44.1
21:15 1022 30.18 851 25.13 15.7 60.3 56 7.1 44.7
21:20 1022 30.18 851 25.13 15.5 60 57 7.1 44.8
21:25 1022 30.18 851 25.13 15.4 59.6 57 7 44.6
21:30 1022 30.18 851 25.13 15.2 59.3 58 6.9 44.5
21:35 1022 30.18 851 25.13 15.1 59.2 58 7.1 44.7
21:40 1022 30.18 851 25.13 14.8 58.7 60 7.3 45.1
21:45 1022 30.18 851 25.13 14.4 57.9 63 7.4 45.4
21:50 1022 30.18 851 25.13 14.1 57.4 63 7.3 45.2
21:55 1022 30.18 851 25.13 14 57.2 63 7 44.7
22:00 1022 30.18 851 25.13 14 57.3 59 6.3 43.3
22:05 1022 30.18 851 25.13 14.3 57.7 58 6.2 43.1
22:10 1022 30.18 852 25.16 14.3 57.7 59 6.3 43.4
22:15 1022 30.18 852 25.16 14.2 57.6 59 6.5 43.7
22:20 1022 30.18 852 25.16 14.2 57.6 60 6.6 43.9
22:25 1022 30.18 852 25.16 14.3 57.7 60 6.7 44.1
22:30 1022 30.18 852 25.16 14.2 57.5 61 6.8 44.2
22:35 1022 30.18 852 25.16 14 57.2 61 6.7 44
22:40 1022 30.18 852 25.16 13.8 56.8 62 6.7 44
22:45 1022 30.18 852 25.16 13.6 56.4 63 6.7 44.1
22:50 1022 30.18 852 25.16 13.4 56 64 6.8 44.3
22:55 1022 30.18 852 25.16 13.1 55.5 65 6.7 44
23:00 1022 30.18 852 25.16 12.9 55.3 63 6.2 43.1
23:05 1023 30.21 852 25.16 13.2 55.7 61 5.9 42.6
23:10 1023 30.21 852 25.16 13.3 55.9 62 6.2 43.1
23:15 1023 30.21 852 25.16 13 55.4 63 6.1 43
23:20 1023 30.21 852 25.16 12.8 55 64 6.3 43.3
23:25 1023 30.21 852 25.16 12.5 54.5 66 6.3 43.4
23:30 1023 30.21 852 25.16 12.4 54.3 66 6.3 43.4
23:35 1023 30.21 852 25.16 12.4 54.3 65 6 42.8
23:40 1023 30.21 852 25.16 12.4 54.2 64 5.9 42.6
23:45 1023 30.21 852 25.16 12.3 54.1 66 6.2 43.2
23:50 1023 30.21 852 25.16 12.3 54.1 64 5.7 42.3
23:55 1023 30.21 852 25.16 12.3 54.2 65 6.1 42.9
24:00 1023 30.21 852 25.16 12.3 54.2 64 5.7 42.3